Airfield :
LOGIN :

Register | Disclaimer

   EN    FR    IT 

 










Legend :    VFR   Marginal VFR   IFR   Intensive IFR   Very Intensive IFR
Visi :
Ceiling :
>= 8 km
>= 3000ft
5 to 8 km
1000 to 3000 ft
1500m to 5 km
500 to 1000 ft
800 to 1500m
200 to 500 ft
< 800m
< 200 ft
Symbols :   Thunderstorms  Fog  Heavy snow  Heavy precipitations  Wind > 20 kt
SIGMETs :     Misc.  Thunderstorms  Icing  Turbulence  Mountain Waves  Volcanic Ashes






- Airport Elevation : 915 ft
- IATA code : LUG


LSZA - Lugano

CURRENT METAR :
  • 182050Z AUTO 02014KT 9999 FEW055 BKN080 13/06 Q1012

EXPIRED METARs :
  • 182020Z AUTO 01014G25KT 9999 OVC085 14/06 Q1012
  • 181950Z AUTO 01016KT 9999 FEW080 OVC090 //////TCU 15/05 Q1011
  • 181920Z AUTO 01012KT 340V070 9999 SCT090 BKN095 16/05 Q1010
  • 181850Z AUTO 01011KT 9999 SCT090 BKN100 16/05 Q1010
  • 181820Z 03008KT 350V060 9999 FEW075 SCT085 17/05 Q1011

TAF AMD TAF LSZA
Valid from the 18 at 19:00 until the 19 at 00:00 UTC


181939Z 1819/1824 01012KT 9999 SCT090 BKN100
TEMPO 1819/1824 01015G25KT
PROB30
TEMPO 1819/1822 SHRA SCT050TCU
ATIS : +41 22 417 40 88



MET'MAP, your aeronautical weather chart ! - Copyright ORBIFLY December 2007 - Disclaimer

ORBIFLY MET'MAP TEAM :

Programming & Development : Alexandra Zaïnal
Concept & original design : Baudouin d'Aumeries
Assistance for programming : Marc-Olivier Méhu
Technical & hardware support : Manuel Goepfert

Contact : metmap@orbifly.com




SOURCES & CREDITS :

   NOAA